Alvordton, OH

1:53 AM EST on February 28, 2015 (GMT -0500)
Bridgewater | Change Station
CLOSE
Current Station
Personal Weather Station
Location: Montpelier, OH
Elevation: 899 ft
Nearby Weather Stations

Elev 899 ft 41.63 °N, 84.66 °W | Updated 7 seconds ago

Clear
Clear
-3.0 °F
Feels Like -3 °F
N
0.0
Wind Variable Wind from NW
Gusts 1.8 mph

Today
High -- | Low -- °F
--% Chance of Precip.
Yesterday
High -- | Low -- °F
Precip. -- in
7:14 AM 6:26 PM
Waxing Gibbous, 75% visible
Pressure 30.67 in
Visibility 10.0 miles
Clouds Clear
Windchill -3 °F
Dew Point -4 °F
Humidity 93%
Rainfall 0.00 in
Snow Depth Not available.
UV 12.4 out of 12
Pollen .40 out of 12
Air Quality Not available.
Flu Activity Not available.
METAR KUSE 280635Z AUTO 00000KT 10SM CLR M17/M21 A3067 RMK AO2

More Conditions Fewer Conditions

Pressure 30.67 in
Visibility 10.0 miles
Clouds Clear
Windchill -3 °F
Dew Point -4 °F
Humidity 93%
Rainfall 0.00 in
Snow Depth Not available.
UV 12.4 out of 12
Pollen .40 out of 12
Air Quality Not available.
Flu Activity Not available.
METAR KUSE 280635Z AUTO 00000KT 10SM CLR M17/M21 A3067 RMK AO2

More Conditions Fewer Conditions

10-Day Weather Forecast

Almanac

Astronomy

Feb. 28, 2015 Rise Set
Actual Time
Civil Twilight
Nautical Twilight
Astronomical Twilight
Moon
Length of Visible Light
Length of Day
Tomorrow will be .
, % of the Moon is Illuminated

Today's Extremes

State Highs State Lows

Community

WunderPhotos

Upload Photos

1,800,978 photos uploaded!

WunderBlogs® & News

Nearby

Air Quality

  Air Quality AQ Index Pollutant
Not available.

Snow Depth

Station Depth Elevation

Earthquake Activity

City Distance Mag. Time & Date
Minimum magnitude displayed is 2.5.

Coastal Water Temperatures

Place Temperature

Nearby Weather Stations